メインページ
METAR-TAF:

METAR-TAF

空港 :

シカゴ・ミッドウェー国際空港

シカゴ, イリノイ州, アメリカ合衆国

緯度: 41-47-03N, 経度: 087-45-19W, 海抜: 188m

現時点の気象観測

当レポートは1時間4分前の15:53(UTC)に作成
の風 6kt、最大16ktの突風を伴う
気温 16°C
湿度 42%
気圧 1029 hPa
視程: 16.1km
高度25000ftの雲はほとんどない

METAR: KMDW 311553Z 09006G16KT 10SM FEW250 16/03 A3038 RMK AO2 SLP285 T01560028 $

時間: 11:57 (16:57 UTC)

予報

当レポートは2時間0分前の14:57(UTC)に作成
予報は31日の 15時(UTC)から 01日の 18時(UTC)まで有効
の風 10kt
視程: 10km
高度25000ftの雲はほとんどない
01日の 0000時(UTC)から
南東の風 7kt
視程: 10km
高度25000ftの雲は散在している

TAF: KMDW 311457Z 3115/0118 09010KT P6SM FEW250 FM010000 13007KT P6SM SCT250

4,000以上の空港の気象観測と天気予報(METAR報とTAF報)

利用可能な観測所は地図上に黄色い丸と赤い丸で示す。

丸の上にカーソルを重ねると観測所名を参照できる。

次にクリックすると気象観測と天気予報を参照できる。

マップの切り替え:黒色「×」印の緑ボタンをクリックして拡大、「-」印の緑ボタンをクリックして縮小、緑色の三角印をクリックして隣りの地図に切り替え


METAR-TAF: